sensor_id;sensor_type;location;lat;lon;timestamp;temperature;humidity
17174;DHT22;8702;48.130;-1.696;2023-06-04T00:00:53;18.70;98.50
17174;DHT22;8702;48.130;-1.696;2023-06-04T00:03:20;18.60;99.40
17174;DHT22;8702;48.130;-1.696;2023-06-04T00:05:49;18.60;99.80
17174;DHT22;8702;48.130;-1.696;2023-06-04T00:08:15;18.60;99.90
17174;DHT22;8702;48.130;-1.696;2023-06-04T00:10:42;18.50;99.90
17174;DHT22;8702;48.130;-1.696;2023-06-04T00:13:09;18.50;99.90
17174;DHT22;8702;48.130;-1.696;2023-06-04T00:15:36;18.50;99.90
17174;DHT22;8702;48.130;-1.696;2023-06-04T00:18:03;18.50;99.90
17174;DHT22;8702;48.130;-1.696;2023-06-04T00:20:30;18.40;99.90
17174;DHT22;8702;48.130;-1.696;2023-06-04T00:22:58;18.40;99.90
17174;DHT22;8702;48.130;-1.696;2023-06-04T00:25:25;18.40;99.90
17174;DHT22;8702;48.130;-1.696;2023-06-04T00:27:52;18.40;99.90
17174;DHT22;8702;48.130;-1.696;2023-06-04T00:30:19;18.40;99.90
17174;DHT22;8702;48.130;-1.696;2023-06-04T00:32:46;18.40;99.90
17174;DHT22;8702;48.130;-1.696;2023-06-04T00:35:13;18.40;99.90
17174;DHT22;8702;48.130;-1.696;2023-06-04T00:37:40;18.40;99.90
17174;DHT22;8702;48.130;-1.696;2023-06-04T00:40:09;18.40;99.90
17174;DHT22;8702;48.130;-1.696;2023-06-04T00:42:36;18.50;99.90
17174;DHT22;8702;48.130;-1.696;2023-06-04T00:45:04;18.30;99.90
17174;DHT22;8702;48.130;-1.696;2023-06-04T00:47:33;18.20;99.90
17174;DHT22;8702;48.130;-1.696;2023-06-04T00:50:00;18.20;99.90
17174;DHT22;8702;48.130;-1.696;2023-06-04T00:52:27;18.10;99.90
17174;DHT22;8702;48.130;-1.696;2023-06-04T00:54:54;18.10;99.30
17174;DHT22;8702;48.130;-1.696;2023-06-04T00:57:23;18.10;99.20
17174;DHT22;8702;48.130;-1.696;2023-06-04T00:59:50;18.00;99.20
17174;DHT22;8702;48.130;-1.696;2023-06-04T01:02:19;17.90;99.40
17174;DHT22;8702;48.130;-1.696;2023-06-04T01:04:53;17.90;99.60
17174;DHT22;8702;48.130;-1.696;2023-06-04T01:07:21;17.80;99.90
17174;DHT22;8702;48.130;-1.696;2023-06-04T01:09:49;17.80;99.90
17174;DHT22;8702;48.130;-1.696;2023-06-04T01:12:16;17.70;99.60
17174;DHT22;8702;48.130;-1.696;2023-06-04T01:14:44;17.70;99.90
17174;DHT22;8702;48.130;-1.696;2023-06-04T01:17:15;17.70;99.90
17174;DHT22;8702;48.130;-1.696;2023-06-04T01:19:58;17.60;99.90
17174;DHT22;8702;48.130;-1.696;2023-06-04T01:22:35;17.60;99.90
17174;DHT22;8702;48.130;-1.696;2023-06-04T01:25:04;17.50;99.90
17174;DHT22;8702;48.130;-1.696;2023-06-04T01:27:32;17.50;99.90
17174;DHT22;8702;48.130;-1.696;2023-06-04T01:30:02;17.40;99.90
17174;DHT22;8702;48.130;-1.696;2023-06-04T01:32:30;17.40;99.90
17174;DHT22;8702;48.130;-1.696;2023-06-04T01:34:57;17.40;99.90
17174;DHT22;8702;48.130;-1.696;2023-06-04T01:37:25;17.40;99.90
17174;DHT22;8702;48.130;-1.696;2023-06-04T01:39:52;17.30;99.90
17174;DHT22;8702;48.130;-1.696;2023-06-04T01:42:19;17.30;99.90
17174;DHT22;8702;48.130;-1.696;2023-06-04T01:44:46;17.40;99.90
17174;DHT22;8702;48.130;-1.696;2023-06-04T01:47:15;17.40;99.90
17174;DHT22;8702;48.130;-1.696;2023-06-04T01:49:42;17.30;99.90
17174;DHT22;8702;48.130;-1.696;2023-06-04T01:52:09;17.30;99.90
17174;DHT22;8702;48.130;-1.696;2023-06-04T01:54:37;17.20;99.90
17174;DHT22;8702;48.130;-1.696;2023-06-04T01:57:05;17.20;99.90
17174;DHT22;8702;48.130;-1.696;2023-06-04T01:59:32;17.20;99.90
17174;DHT22;8702;48.130;-1.696;2023-06-04T02:01:59;17.20;99.90
17174;DHT22;8702;48.130;-1.696;2023-06-04T02:04:28;17.20;99.90
17174;DHT22;8702;48.130;-1.696;2023-06-04T02:06:55;17.10;99.90
17174;DHT22;8702;48.130;-1.696;2023-06-04T02:09:25;17.30;99.90
17174;DHT22;8702;48.130;-1.696;2023-06-04T02:11:53;17.30;99.90
17174;DHT22;8702;48.130;-1.696;2023-06-04T02:14:19;17.20;99.90
17174;DHT22;8702;48.130;-1.696;2023-06-04T02:16:47;17.20;99.90
17174;DHT22;8702;48.130;-1.696;2023-06-04T02:19:15;17.10;99.90
17174;DHT22;8702;48.130;-1.696;2023-06-04T02:21:45;17.20;99.90
17174;DHT22;8702;48.130;-1.696;2023-06-04T02:24:12;17.20;99.90
17174;DHT22;8702;48.130;-1.696;2023-06-04T02:26:39;17.10;99.90
17174;DHT22;8702;48.130;-1.696;2023-06-04T02:29:06;17.00;99.90
17174;DHT22;8702;48.130;-1.696;2023-06-04T02:31:33;16.90;99.90
17174;DHT22;8702;48.130;-1.696;2023-06-04T02:34:00;16.90;99.90
17174;DHT22;8702;48.130;-1.696;2023-06-04T02:36:28;17.00;99.90
17174;DHT22;8702;48.130;-1.696;2023-06-04T02:38:56;16.90;99.90
17174;DHT22;8702;48.130;-1.696;2023-06-04T02:41:23;16.90;99.90
17174;DHT22;8702;48.130;-1.696;2023-06-04T02:43:50;16.90;99.90
17174;DHT22;8702;48.130;-1.696;2023-06-04T02:46:17;16.90;99.90
17174;DHT22;8702;48.130;-1.696;2023-06-04T02:48:44;16.90;99.90
17174;DHT22;8702;48.130;-1.696;2023-06-04T02:51:11;16.70;99.90
17174;DHT22;8702;48.130;-1.696;2023-06-04T02:53:38;16.80;99.90
17174;DHT22;8702;48.130;-1.696;2023-06-04T02:56:07;16.90;99.90
17174;DHT22;8702;48.130;-1.696;2023-06-04T02:58:35;16.80;99.90
17174;DHT22;8702;48.130;-1.696;2023-06-04T03:01:05;16.80;99.90
17174;DHT22;8702;48.130;-1.696;2023-06-04T03:03:33;16.70;99.90
17174;DHT22;8702;48.130;-1.696;2023-06-04T03:06:00;16.80;99.90
17174;DHT22;8702;48.130;-1.696;2023-06-04T03:08:27;16.80;99.90
17174;DHT22;8702;48.130;-1.696;2023-06-04T03:10:54;16.60;99.90
17174;DHT22;8702;48.130;-1.696;2023-06-04T03:13:22;16.60;99.90
17174;DHT22;8702;48.130;-1.696;2023-06-04T03:15:49;16.60;99.90
17174;DHT22;8702;48.130;-1.696;2023-06-04T03:18:20;16.60;99.90
17174;DHT22;8702;48.130;-1.696;2023-06-04T03:20:48;16.60;99.90
17174;DHT22;8702;48.130;-1.696;2023-06-04T03:23:15;16.60;99.90
17174;DHT22;8702;48.130;-1.696;2023-06-04T03:25:42;16.70;99.90
17174;DHT22;8702;48.130;-1.696;2023-06-04T03:28:09;16.60;99.90
17174;DHT22;8702;48.130;-1.696;2023-06-04T03:30:37;16.60;99.90
17174;DHT22;8702;48.130;-1.696;2023-06-04T03:33:04;16.60;99.90
17174;DHT22;8702;48.130;-1.696;2023-06-04T03:35:31;16.50;99.90
17174;DHT22;8702;48.130;-1.696;2023-06-04T03:37:58;16.50;99.90
17174;DHT22;8702;48.130;-1.696;2023-06-04T03:40:25;16.50;99.90
17174;DHT22;8702;48.130;-1.696;2023-06-04T03:42:52;16.50;99.90
17174;DHT22;8702;48.130;-1.696;2023-06-04T03:45:19;16.50;99.90
17174;DHT22;8702;48.130;-1.696;2023-06-04T03:47:47;16.40;99.90
17174;DHT22;8702;48.130;-1.696;2023-06-04T03:50:14;16.30;99.90
17174;DHT22;8702;48.130;-1.696;2023-06-04T03:52:41;16.20;99.90
17174;DHT22;8702;48.130;-1.696;2023-06-04T03:55:08;16.20;99.90
17174;DHT22;8702;48.130;-1.696;2023-06-04T03:57:36;16.00;99.90
17174;DHT22;8702;48.130;-1.696;2023-06-04T04:00:05;16.00;99.90
17174;DHT22;8702;48.130;-1.696;2023-06-04T04:02:33;16.10;99.90
17174;DHT22;8702;48.130;-1.696;2023-06-04T04:05:01;16.10;99.90
17174;DHT22;8702;48.130;-1.696;2023-06-04T04:07:28;16.10;99.90
17174;DHT22;8702;48.130;-1.696;2023-06-04T04:09:55;16.00;99.90
17174;DHT22;8702;48.130;-1.696;2023-06-04T04:12:22;16.00;99.90
17174;DHT22;8702;48.130;-1.696;2023-06-04T04:14:49;15.80;99.90
17174;DHT22;8702;48.130;-1.696;2023-06-04T04:17:16;16.00;99.90
17174;DHT22;8702;48.130;-1.696;2023-06-04T04:19:43;15.90;99.90
17174;DHT22;8702;48.130;-1.696;2023-06-04T04:22:11;16.00;99.90
17174;DHT22;8702;48.130;-1.696;2023-06-04T04:24:42;15.90;99.90
17174;DHT22;8702;48.130;-1.696;2023-06-04T04:27:10;16.00;99.90
17174;DHT22;8702;48.130;-1.696;2023-06-04T04:29:39;16.00;99.90
17174;DHT22;8702;48.130;-1.696;2023-06-04T04:32:08;15.90;99.90
17174;DHT22;8702;48.130;-1.696;2023-06-04T04:34:37;15.90;99.90
17174;DHT22;8702;48.130;-1.696;2023-06-04T04:37:04;15.90;99.90
17174;DHT22;8702;48.130;-1.696;2023-06-04T04:39:35;15.90;99.90
17174;DHT22;8702;48.130;-1.696;2023-06-04T04:42:02;15.90;99.90
17174;DHT22;8702;48.130;-1.696;2023-06-04T04:44:29;15.90;99.90
17174;DHT22;8702;48.130;-1.696;2023-06-04T04:46:56;15.90;99.90
17174;DHT22;8702;48.130;-1.696;2023-06-04T04:49:23;15.80;99.90
17174;DHT22;8702;48.130;-1.696;2023-06-04T04:51:50;15.80;99.90
17174;DHT22;8702;48.130;-1.696;2023-06-04T04:54:17;15.70;99.90
17174;DHT22;8702;48.130;-1.696;2023-06-04T04:56:45;15.90;99.90
17174;DHT22;8702;48.130;-1.696;2023-06-04T04:59:12;16.00;99.90
17174;DHT22;8702;48.130;-1.696;2023-06-04T05:01:39;16.00;99.90
17174;DHT22;8702;48.130;-1.696;2023-06-04T05:04:06;16.10;99.90
17174;DHT22;8702;48.130;-1.696;2023-06-04T05:06:33;16.20;99.90
17174;DHT22;8702;48.130;-1.696;2023-06-04T05:08:59;16.10;99.90
17174;DHT22;8702;48.130;-1.696;2023-06-04T05:11:27;16.10;99.90
17174;DHT22;8702;48.130;-1.696;2023-06-04T05:13:55;16.20;99.90
17174;DHT22;8702;48.130;-1.696;2023-06-04T05:16:22;16.20;99.90
17174;DHT22;8702;48.130;-1.696;2023-06-04T05:18:50;16.20;99.90
17174;DHT22;8702;48.130;-1.696;2023-06-04T05:21:18;16.00;99.90
17174;DHT22;8702;48.130;-1.696;2023-06-04T05:23:45;15.90;99.90
17174;DHT22;8702;48.130;-1.696;2023-06-04T05:26:13;16.10;99.90
17174;DHT22;8702;48.130;-1.696;2023-06-04T05:28:41;16.00;99.90
17174;DHT22;8702;48.130;-1.696;2023-06-04T05:31:10;16.00;99.90
17174;DHT22;8702;48.130;-1.696;2023-06-04T05:33:38;16.90;99.90
17174;DHT22;8702;48.130;-1.696;2023-06-04T05:36:05;16.00;99.90
17174;DHT22;8702;48.130;-1.696;2023-06-04T05:38:32;16.10;99.90
17174;DHT22;8702;48.130;-1.696;2023-06-04T05:41:01;16.00;99.90
17174;DHT22;8702;48.130;-1.696;2023-06-04T05:43:28;16.10;99.90
17174;DHT22;8702;48.130;-1.696;2023-06-04T05:45:55;16.00;99.90
17174;DHT22;8702;48.130;-1.696;2023-06-04T05:48:24;16.00;99.90
17174;DHT22;8702;48.130;-1.696;2023-06-04T05:50:50;16.10;99.90
17174;DHT22;8702;48.130;-1.696;2023-06-04T05:53:17;16.00;99.90
17174;DHT22;8702;48.130;-1.696;2023-06-04T05:55:44;16.00;99.90
17174;DHT22;8702;48.130;-1.696;2023-06-04T05:58:11;16.10;99.90
17174;DHT22;8702;48.130;-1.696;2023-06-04T06:00:38;16.20;99.90
17174;DHT22;8702;48.130;-1.696;2023-06-04T06:03:05;16.10;99.90
17174;DHT22;8702;48.130;-1.696;2023-06-04T06:05:34;16.20;99.90
17174;DHT22;8702;48.130;-1.696;2023-06-04T06:08:00;16.20;99.90
17174;DHT22;8702;48.130;-1.696;2023-06-04T06:10:28;16.30;99.90
17174;DHT22;8702;48.130;-1.696;2023-06-04T06:12:55;16.30;99.90
17174;DHT22;8702;48.130;-1.696;2023-06-04T06:15:22;16.20;99.90
17174;DHT22;8702;48.130;-1.696;2023-06-04T06:17:49;16.20;99.90
17174;DHT22;8702;48.130;-1.696;2023-06-04T06:20:17;16.20;99.90
17174;DHT22;8702;48.130;-1.696;2023-06-04T06:22:46;16.20;99.90
17174;DHT22;8702;48.130;-1.696;2023-06-04T06:25:13;16.20;99.90
17174;DHT22;8702;48.130;-1.696;2023-06-04T06:27:41;16.30;99.90
17174;DHT22;8702;48.130;-1.696;2023-06-04T06:30:08;16.40;99.90
17174;DHT22;8702;48.130;-1.696;2023-06-04T06:32:35;16.50;99.90
17174;DHT22;8702;48.130;-1.696;2023-06-04T06:35:04;16.60;99.90
17174;DHT22;8702;48.130;-1.696;2023-06-04T06:37:31;16.70;99.90
17174;DHT22;8702;48.130;-1.696;2023-06-04T06:39:59;16.70;99.90
17174;DHT22;8702;48.130;-1.696;2023-06-04T06:42:26;16.80;99.90
17174;DHT22;8702;48.130;-1.696;2023-06-04T06:44:58;16.70;99.90
17174;DHT22;8702;48.130;-1.696;2023-06-04T06:47:25;16.80;99.90
17174;DHT22;8702;48.130;-1.696;2023-06-04T06:49:52;16.90;99.90
17174;DHT22;8702;48.130;-1.696;2023-06-04T06:52:20;17.00;99.90
17174;DHT22;8702;48.130;-1.696;2023-06-04T06:54:52;17.00;99.90
17174;DHT22;8702;48.130;-1.696;2023-06-04T06:57:20;17.10;99.90
17174;DHT22;8702;48.130;-1.696;2023-06-04T06:59:47;17.10;99.90
17174;DHT22;8702;48.130;-1.696;2023-06-04T07:02:17;17.20;99.90
17174;DHT22;8702;48.130;-1.696;2023-06-04T07:04:44;17.20;99.80
17174;DHT22;8702;48.130;-1.696;2023-06-04T07:07:11;17.30;98.60
17174;DHT22;8702;48.130;-1.696;2023-06-04T07:09:38;17.40;98.50
17174;DHT22;8702;48.130;-1.696;2023-06-04T07:12:05;17.60;98.40
17174;DHT22;8702;48.130;-1.696;2023-06-04T07:14:33;17.30;99.90
17174;DHT22;8702;48.130;-1.696;2023-06-04T07:17:01;17.40;98.50
17174;DHT22;8702;48.130;-1.696;2023-06-04T07:19:28;17.70;99.70
17174;DHT22;8702;48.130;-1.696;2023-06-04T07:21:55;17.50;98.00
17174;DHT22;8702;48.130;-1.696;2023-06-04T07:24:22;17.90;98.30
17174;DHT22;8702;48.130;-1.696;2023-06-04T07:26:49;17.70;99.90
17174;DHT22;8702;48.130;-1.696;2023-06-04T07:29:16;17.70;99.90
17174;DHT22;8702;48.130;-1.696;2023-06-04T07:31:44;17.80;99.90
17174;DHT22;8702;48.130;-1.696;2023-06-04T07:34:12;17.70;99.90
17174;DHT22;8702;48.130;-1.696;2023-06-04T07:36:39;17.90;99.90
17174;DHT22;8702;48.130;-1.696;2023-06-04T07:39:07;18.10;97.40
17174;DHT22;8702;48.130;-1.696;2023-06-04T07:41:34;17.90;97.40
17174;DHT22;8702;48.130;-1.696;2023-06-04T07:44:01;18.00;97.50
17174;DHT22;8702;48.130;-1.696;2023-06-04T07:46:28;18.10;97.40
17174;DHT22;8702;48.130;-1.696;2023-06-04T07:48:56;18.20;97.50
17174;DHT22;8702;48.130;-1.696;2023-06-04T07:51:23;18.20;97.30
17174;DHT22;8702;48.130;-1.696;2023-06-04T07:53:51;18.30;97.20
17174;DHT22;8702;48.130;-1.696;2023-06-04T07:56:18;18.40;97.20
17174;DHT22;8702;48.130;-1.696;2023-06-04T07:58:45;18.50;97.20
17174;DHT22;8702;48.130;-1.696;2023-06-04T08:01:12;18.60;96.90
17174;DHT22;8702;48.130;-1.696;2023-06-04T08:03:39;18.50;97.20
17174;DHT22;8702;48.130;-1.696;2023-06-04T08:06:09;18.60;97.20
17174;DHT22;8702;48.130;-1.696;2023-06-04T08:08:36;18.70;97.10
17174;DHT22;8702;48.130;-1.696;2023-06-04T08:11:06;18.70;97.30
17174;DHT22;8702;48.130;-1.696;2023-06-04T08:13:33;18.80;97.20
17174;DHT22;8702;48.130;-1.696;2023-06-04T08:16:00;18.90;97.10
17174;DHT22;8702;48.130;-1.696;2023-06-04T08:18:27;19.00;97.10
17174;DHT22;8702;48.130;-1.696;2023-06-04T08:20:54;19.00;96.90
17174;DHT22;8702;48.130;-1.696;2023-06-04T08:23:23;19.10;97.00
17174;DHT22;8702;48.130;-1.696;2023-06-04T08:25:50;19.00;96.70
17174;DHT22;8702;48.130;-1.696;2023-06-04T08:28:17;19.00;96.70
17174;DHT22;8702;48.130;-1.696;2023-06-04T08:30:44;19.10;97.00
17174;DHT22;8702;48.130;-1.696;2023-06-04T08:33:11;19.10;96.60
17174;DHT22;8702;48.130;-1.696;2023-06-04T08:35:38;19.10;96.60
17174;DHT22;8702;48.130;-1.696;2023-06-04T08:38:05;19.20;96.80
17174;DHT22;8702;48.130;-1.696;2023-06-04T08:40:34;19.30;96.90
17174;DHT22;8702;48.130;-1.696;2023-06-04T08:43:01;19.40;96.80
17174;DHT22;8702;48.130;-1.696;2023-06-04T08:45:28;19.50;96.70
17174;DHT22;8702;48.130;-1.696;2023-06-04T08:47:57;19.60;96.70
17174;DHT22;8702;48.130;-1.696;2023-06-04T08:50:24;19.60;96.60
17174;DHT22;8702;48.130;-1.696;2023-06-04T08:52:53;19.70;96.60
17174;DHT22;8702;48.130;-1.696;2023-06-04T08:55:20;19.80;96.70
17174;DHT22;8702;48.130;-1.696;2023-06-04T08:57:49;19.80;96.30
17174;DHT22;8702;48.130;-1.696;2023-06-04T09:00:17;19.80;96.40
17174;DHT22;8702;48.130;-1.696;2023-06-04T09:02:45;19.90;96.60
17174;DHT22;8702;48.130;-1.696;2023-06-04T09:05:19;19.90;96.20
17174;DHT22;8702;48.130;-1.696;2023-06-04T09:07:46;20.00;96.60
17174;DHT22;8702;48.130;-1.696;2023-06-04T09:10:18;20.00;96.60
17174;DHT22;8702;48.130;-1.696;2023-06-04T09:12:47;20.10;96.70
17174;DHT22;8702;48.130;-1.696;2023-06-04T09:15:15;20.20;97.60
17174;DHT22;8702;48.130;-1.696;2023-06-04T09:17:42;20.20;97.70
17174;DHT22;8702;48.130;-1.696;2023-06-04T09:20:18;20.30;98.20
17174;DHT22;8702;48.130;-1.696;2023-06-04T09:22:45;20.40;97.20
17174;DHT22;8702;48.130;-1.696;2023-06-04T09:25:19;20.30;98.00
17174;DHT22;8702;48.130;-1.696;2023-06-04T09:27:47;20.40;97.30
17174;DHT22;8702;48.130;-1.696;2023-06-04T09:30:15;20.40;97.60
17174;DHT22;8702;48.130;-1.696;2023-06-04T09:32:42;20.50;98.70
17174;DHT22;8702;48.130;-1.696;2023-06-04T09:35:10;20.50;98.00
17174;DHT22;8702;48.130;-1.696;2023-06-04T09:37:38;20.60;99.90
17174;DHT22;8702;48.130;-1.696;2023-06-04T09:42:44;20.80;99.90
17174;DHT22;8702;48.130;-1.696;2023-06-04T09:45:12;20.80;99.90
17174;DHT22;8702;48.130;-1.696;2023-06-04T09:47:41;20.90;99.90
17174;DHT22;8702;48.130;-1.696;2023-06-04T09:50:10;20.90;98.00
17174;DHT22;8702;48.130;-1.696;2023-06-04T09:52:37;21.00;98.90
17174;DHT22;8702;48.130;-1.696;2023-06-04T09:55:15;21.10;99.90
17174;DHT22;8702;48.130;-1.696;2023-06-04T09:57:45;21.20;95.80
17174;DHT22;8702;48.130;-1.696;2023-06-04T10:00:14;21.30;95.40
17174;DHT22;8702;48.130;-1.696;2023-06-04T10:02:44;21.30;95.80
17174;DHT22;8702;48.130;-1.696;2023-06-04T10:05:13;21.30;95.60
17174;DHT22;8702;48.130;-1.696;2023-06-04T10:07:42;21.50;96.00
17174;DHT22;8702;48.130;-1.696;2023-06-04T10:10:11;21.40;95.50
17174;DHT22;8702;48.130;-1.696;2023-06-04T10:12:41;21.40;95.60
17174;DHT22;8702;48.130;-1.696;2023-06-04T10:15:11;21.40;95.70
17174;DHT22;8702;48.130;-1.696;2023-06-04T10:17:39;21.50;95.80
17174;DHT22;8702;48.130;-1.696;2023-06-04T10:20:09;21.50;99.90
17174;DHT22;8702;48.130;-1.696;2023-06-04T10:22:37;21.70;95.20
17174;DHT22;8702;48.130;-1.696;2023-06-04T10:25:05;21.70;95.00
17174;DHT22;8702;48.130;-1.696;2023-06-04T10:27:32;21.90;95.00
17174;DHT22;8702;48.130;-1.696;2023-06-04T10:30:01;21.90;95.10
17174;DHT22;8702;48.130;-1.696;2023-06-04T10:32:29;22.00;95.10
17174;DHT22;8702;48.130;-1.696;2023-06-04T10:34:56;22.00;94.80
17174;DHT22;8702;48.130;-1.696;2023-06-04T10:37:27;22.00;94.70
17174;DHT22;8702;48.130;-1.696;2023-06-04T10:39:55;22.90;94.70
17174;DHT22;8702;48.130;-1.696;2023-06-04T10:42:24;22.20;94.20
17174;DHT22;8702;48.130;-1.696;2023-06-04T10:44:52;22.30;94.50
17174;DHT22;8702;48.130;-1.696;2023-06-04T10:47:21;22.30;94.10
17174;DHT22;8702;48.130;-1.696;2023-06-04T10:49:49;22.40;94.40
17174;DHT22;8702;48.130;-1.696;2023-06-04T10:52:17;22.40;94.10
17174;DHT22;8702;48.130;-1.696;2023-06-04T10:54:46;22.50;93.80
17174;DHT22;8702;48.130;-1.696;2023-06-04T10:57:16;22.60;94.10
17174;DHT22;8702;48.130;-1.696;2023-06-04T10:59:53;22.60;96.40
17174;DHT22;8702;48.130;-1.696;2023-06-04T11:02:20;22.60;94.90
17174;DHT22;8702;48.130;-1.696;2023-06-04T11:04:57;22.60;97.60
17174;DHT22;8702;48.130;-1.696;2023-06-04T11:07:25;22.60;96.50
17174;DHT22;8702;48.130;-1.696;2023-06-04T11:09:53;22.60;99.90
17174;DHT22;8702;48.130;-1.696;2023-06-04T11:12:21;22.70;99.90
17174;DHT22;8702;48.130;-1.696;2023-06-04T11:14:54;22.70;94.90
17174;DHT22;8702;48.130;-1.696;2023-06-04T11:17:21;22.70;94.10
17174;DHT22;8702;48.130;-1.696;2023-06-04T11:19:49;22.80;94.70
17174;DHT22;8702;48.130;-1.696;2023-06-04T11:22:20;22.90;95.40
17174;DHT22;8702;48.130;-1.696;2023-06-04T11:24:47;23.00;95.60
17174;DHT22;8702;48.130;-1.696;2023-06-04T11:27:19;23.10;94.70
17174;DHT22;8702;48.130;-1.696;2023-06-04T11:29:49;23.20;95.60
17174;DHT22;8702;48.130;-1.696;2023-06-04T11:32:21;23.40;99.90
17174;DHT22;8702;48.130;-1.696;2023-06-04T11:34:49;23.50;99.90
17174;DHT22;8702;48.130;-1.696;2023-06-04T11:39:43;23.50;99.90
17174;DHT22;8702;48.130;-1.696;2023-06-04T11:44:40;23.80;99.90
17174;DHT22;8702;48.130;-1.696;2023-06-04T11:47:11;23.80;99.90
17174;DHT22;8702;48.130;-1.696;2023-06-04T11:49:39;23.80;99.90
17174;DHT22;8702;48.130;-1.696;2023-06-04T11:52:08;23.80;99.90
17174;DHT22;8702;48.130;-1.696;2023-06-04T11:54:35;23.80;99.90
17174;DHT22;8702;48.130;-1.696;2023-06-04T11:57:04;23.80;99.90
17174;DHT22;8702;48.130;-1.696;2023-06-04T11:59:31;23.90;99.90
17174;DHT22;8702;48.130;-1.696;2023-06-04T12:02:00;23.90;99.90
17174;DHT22;8702;48.130;-1.696;2023-06-04T12:04:30;23.90;99.90
17174;DHT22;8702;48.130;-1.696;2023-06-04T12:06:57;24.00;99.90
17174;DHT22;8702;48.130;-1.696;2023-06-04T12:09:28;24.00;99.90
17174;DHT22;8702;48.130;-1.696;2023-06-04T12:11:59;24.00;99.90
17174;DHT22;8702;48.130;-1.696;2023-06-04T12:14:27;24.10;99.90
17174;DHT22;8702;48.130;-1.696;2023-06-04T12:17:02;24.50;99.90
17174;DHT22;8702;48.130;-1.696;2023-06-04T12:19:29;24.30;99.90
17174;DHT22;8702;48.130;-1.696;2023-06-04T12:21:59;24.40;99.90
17174;DHT22;8702;48.130;-1.696;2023-06-04T12:24:28;24.50;99.90
17174;DHT22;8702;48.130;-1.696;2023-06-04T12:27:02;24.50;99.90
17174;DHT22;8702;48.130;-1.696;2023-06-04T12:29:29;24.60;99.90
17174;DHT22;8702;48.130;-1.696;2023-06-04T17:55:21;31.60;64.30
17174;DHT22;8702;48.130;-1.696;2023-06-04T17:57:49;31.50;64.90
17174;DHT22;8702;48.130;-1.696;2023-06-04T18:00:17;31.20;74.70
17174;DHT22;8702;48.130;-1.696;2023-06-04T18:02:44;31.10;76.70
17174;DHT22;8702;48.130;-1.696;2023-06-04T18:05:11;30.90;73.50
17174;DHT22;8702;48.130;-1.696;2023-06-04T18:07:38;30.80;83.30
17174;DHT22;8702;48.130;-1.696;2023-06-04T18:10:06;30.90;85.50
17174;DHT22;8702;48.130;-1.696;2023-06-04T18:12:34;30.60;89.00
17174;DHT22;8702;48.130;-1.696;2023-06-04T18:15:02;30.60;76.20
17174;DHT22;8702;48.130;-1.696;2023-06-04T18:17:29;30.50;85.30
17174;DHT22;8702;48.130;-1.696;2023-06-04T18:19:57;30.20;72.70
17174;DHT22;8702;48.130;-1.696;2023-06-04T18:22:24;30.00;77.10
17174;DHT22;8702;48.130;-1.696;2023-06-04T18:24:50;29.90;79.60
17174;DHT22;8702;48.130;-1.696;2023-06-04T18:32:15;28.90;94.40
17174;DHT22;8702;48.130;-1.696;2023-06-04T18:34:42;28.80;89.80
17174;DHT22;8702;48.130;-1.696;2023-06-04T18:37:10;28.10;99.10
17174;DHT22;8702;48.130;-1.696;2023-06-04T19:11:45;27.20;80.60
17174;DHT22;8702;48.130;-1.696;2023-06-04T19:14:12;27.10;81.10
17174;DHT22;8702;48.130;-1.696;2023-06-04T19:16:39;26.90;81.60
17174;DHT22;8702;48.130;-1.696;2023-06-04T19:19:07;26.90;82.00
17174;DHT22;8702;48.130;-1.696;2023-06-04T19:21:34;26.70;82.20
17174;DHT22;8702;48.130;-1.696;2023-06-04T19:24:03;26.70;83.00
17174;DHT22;8702;48.130;-1.696;2023-06-04T19:26:30;26.30;82.50
17174;DHT22;8702;48.130;-1.696;2023-06-04T19:28:57;26.50;83.40
17174;DHT22;8702;48.130;-1.696;2023-06-04T19:31:24;26.30;83.50
17174;DHT22;8702;48.130;-1.696;2023-06-04T19:33:53;26.30;83.30
17174;DHT22;8702;48.130;-1.696;2023-06-04T19:38:47;25.90;91.10
17174;DHT22;8702;48.130;-1.696;2023-06-04T19:41:16;25.80;85.00
17174;DHT22;8702;48.130;-1.696;2023-06-04T19:43:43;25.60;85.70
17174;DHT22;8702;48.130;-1.696;2023-06-04T19:46:10;25.60;85.80
17174;DHT22;8702;48.130;-1.696;2023-06-04T19:48:37;25.30;87.10
17174;DHT22;8702;48.130;-1.696;2023-06-04T19:51:05;25.20;86.70
17174;DHT22;8702;48.130;-1.696;2023-06-04T19:53:32;25.10;86.70
17174;DHT22;8702;48.130;-1.696;2023-06-04T19:55:59;25.10;87.80
17174;DHT22;8702;48.130;-1.696;2023-06-04T19:58:27;25.00;97.20
17174;DHT22;8702;48.130;-1.696;2023-06-04T20:00:54;24.90;87.80
17174;DHT22;8702;48.130;-1.696;2023-06-04T20:03:21;24.80;87.90
17174;DHT22;8702;48.130;-1.696;2023-06-04T20:05:49;24.70;89.00
17174;DHT22;8702;48.130;-1.696;2023-06-04T20:08:16;24.60;88.60
17174;DHT22;8702;48.130;-1.696;2023-06-04T20:10:43;24.60;89.40
17174;DHT22;8702;48.130;-1.696;2023-06-04T20:13:11;24.50;88.30
17174;DHT22;8702;48.130;-1.696;2023-06-04T20:15:39;24.30;88.20
17174;DHT22;8702;48.130;-1.696;2023-06-04T20:18:06;24.30;88.20
17174;DHT22;8702;48.130;-1.696;2023-06-04T20:20:33;24.20;88.40
17174;DHT22;8702;48.130;-1.696;2023-06-04T20:23:00;24.10;89.10
17174;DHT22;8702;48.130;-1.696;2023-06-04T20:25:27;24.00;89.20
17174;DHT22;8702;48.130;-1.696;2023-06-04T20:27:55;23.90;89.80
17174;DHT22;8702;48.130;-1.696;2023-06-04T20:30:23;23.80;90.00
17174;DHT22;8702;48.130;-1.696;2023-06-04T20:32:52;23.70;90.00
17174;DHT22;8702;48.130;-1.696;2023-06-04T20:35:20;23.60;90.30
17174;DHT22;8702;48.130;-1.696;2023-06-04T20:37:47;23.50;90.40
17174;DHT22;8702;48.130;-1.696;2023-06-04T20:40:14;23.50;90.40
17174;DHT22;8702;48.130;-1.696;2023-06-04T20:42:41;23.40;90.60
17174;DHT22;8702;48.130;-1.696;2023-06-04T20:45:08;23.30;90.40
17174;DHT22;8702;48.130;-1.696;2023-06-04T20:47:36;23.30;90.50
17174;DHT22;8702;48.130;-1.696;2023-06-04T20:50:05;23.20;90.50
17174;DHT22;8702;48.130;-1.696;2023-06-04T20:52:32;23.10;90.70
17174;DHT22;8702;48.130;-1.696;2023-06-04T20:54:59;23.10;91.00
17174;DHT22;8702;48.130;-1.696;2023-06-04T20:57:25;23.10;90.90
17174;DHT22;8702;48.130;-1.696;2023-06-04T20:59:52;22.90;91.00
17174;DHT22;8702;48.130;-1.696;2023-06-04T21:02:19;22.90;91.20
17174;DHT22;8702;48.130;-1.696;2023-06-04T21:04:46;22.80;91.30
17174;DHT22;8702;48.130;-1.696;2023-06-04T21:07:15;22.60;92.10
17174;DHT22;8702;48.130;-1.696;2023-06-04T21:09:42;22.60;99.90
17174;DHT22;8702;48.130;-1.696;2023-06-04T21:12:09;22.50;91.20
17174;DHT22;8702;48.130;-1.696;2023-06-04T21:14:40;22.50;91.20
17174;DHT22;8702;48.130;-1.696;2023-06-04T21:17:07;22.60;91.10
17174;DHT22;8702;48.130;-1.696;2023-06-04T21:19:34;22.50;91.40
17174;DHT22;8702;48.130;-1.696;2023-06-04T21:22:04;22.40;91.50
17174;DHT22;8702;48.130;-1.696;2023-06-04T21:24:32;22.40;91.60
17174;DHT22;8702;48.130;-1.696;2023-06-04T21:26:59;22.20;91.50
17174;DHT22;8702;48.130;-1.696;2023-06-04T21:29:26;22.20;91.70
17174;DHT22;8702;48.130;-1.696;2023-06-04T21:31:52;22.10;91.70
17174;DHT22;8702;48.130;-1.696;2023-06-04T21:34:19;22.10;91.60
17174;DHT22;8702;48.130;-1.696;2023-06-04T21:36:47;22.10;91.60
17174;DHT22;8702;48.130;-1.696;2023-06-04T21:39:14;22.00;91.70
17174;DHT22;8702;48.130;-1.696;2023-06-04T21:41:42;21.90;91.90
17174;DHT22;8702;48.130;-1.696;2023-06-04T21:44:09;21.80;92.00